sensor_id;sensor_type;location;lat;lon;timestamp;P1;durP1;ratioP1;P2;durP2;ratioP2
20855;SDS011;63058;49.424;8.420;2023-12-22T00:00:44;0.40;;;0.30;;
20855;SDS011;63058;49.424;8.420;2023-12-22T00:03:12;0.30;;;0.20;;
20855;SDS011;63058;49.424;8.420;2023-12-22T00:05:38;0.17;;;0.17;;
20855;SDS011;63058;49.424;8.420;2023-12-22T00:08:04;0.70;;;0.20;;
20855;SDS011;63058;49.424;8.420;2023-12-22T00:10:30;0.20;;;0.20;;
20855;SDS011;63058;49.424;8.420;2023-12-22T00:12:55;1.52;;;0.38;;
20855;SDS011;63058;49.424;8.420;2023-12-22T00:15:21;0.38;;;0.20;;
20855;SDS011;63058;49.424;8.420;2023-12-22T00:17:46;0.70;;;0.20;;
20855;SDS011;63058;49.424;8.420;2023-12-22T00:20:12;0.22;;;0.15;;
20855;SDS011;63058;49.424;8.420;2023-12-22T00:22:39;1.45;;;0.20;;
20855;SDS011;63058;49.424;8.420;2023-12-22T00:25:06;0.15;;;0.15;;
20855;SDS011;63058;49.424;8.420;2023-12-22T00:27:33;0.45;;;0.20;;
20855;SDS011;63058;49.424;8.420;2023-12-22T00:29:58;0.22;;;0.20;;
20855;SDS011;63058;49.424;8.420;2023-12-22T00:32:24;0.40;;;0.30;;
20855;SDS011;63058;49.424;8.420;2023-12-22T00:34:50;0.13;;;0.10;;
20855;SDS011;63058;49.424;8.420;2023-12-22T00:37:15;0.20;;;0.20;;
20855;SDS011;63058;49.424;8.420;2023-12-22T00:39:41;0.40;;;0.20;;
20855;SDS011;63058;49.424;8.420;2023-12-22T00:42:07;0.30;;;0.30;;
20855;SDS011;63058;49.424;8.420;2023-12-22T00:44:32;0.98;;;0.20;;
20855;SDS011;63058;49.424;8.420;2023-12-22T00:46:58;0.32;;;0.20;;
20855;SDS011;63058;49.424;8.420;2023-12-22T00:49:23;0.40;;;0.28;;
20855;SDS011;63058;49.424;8.420;2023-12-22T00:51:49;0.90;;;0.20;;
20855;SDS011;63058;49.424;8.420;2023-12-22T00:54:14;0.20;;;0.20;;
20855;SDS011;63058;49.424;8.420;2023-12-22T00:56:40;0.35;;;0.20;;
20855;SDS011;63058;49.424;8.420;2023-12-22T00:59:05;0.22;;;0.20;;
20855;SDS011;63058;49.424;8.420;2023-12-22T01:01:31;0.63;;;0.32;;
20855;SDS011;63058;49.424;8.420;2023-12-22T01:03:56;0.38;;;0.30;;
20855;SDS011;63058;49.424;8.420;2023-12-22T01:06:22;0.65;;;0.30;;
20855;SDS011;63058;49.424;8.420;2023-12-22T01:08:48;0.63;;;0.20;;
20855;SDS011;63058;49.424;8.420;2023-12-22T01:11:15;0.82;;;0.28;;
20855;SDS011;63058;49.424;8.420;2023-12-22T01:13:41;0.73;;;0.30;;
20855;SDS011;63058;49.424;8.420;2023-12-22T01:16:07;0.20;;;0.20;;
20855;SDS011;63058;49.424;8.420;2023-12-22T01:18:33;1.25;;;0.20;;
20855;SDS011;63058;49.424;8.420;2023-12-22T01:20:58;0.38;;;0.20;;
20855;SDS011;63058;49.424;8.420;2023-12-22T01:23:24;1.38;;;0.28;;
20855;SDS011;63058;49.424;8.420;2023-12-22T01:25:50;0.93;;;0.30;;
20855;SDS011;63058;49.424;8.420;2023-12-22T01:28:16;1.42;;;0.30;;
20855;SDS011;63058;49.424;8.420;2023-12-22T01:30:41;0.25;;;0.20;;
20855;SDS011;63058;49.424;8.420;2023-12-22T01:33:07;0.30;;;0.30;;
20855;SDS011;63058;49.424;8.420;2023-12-22T01:35:32;0.40;;;0.22;;
20855;SDS011;63058;49.424;8.420;2023-12-22T01:37:58;0.57;;;0.25;;
20855;SDS011;63058;49.424;8.420;2023-12-22T01:40:23;0.30;;;0.20;;
20855;SDS011;63058;49.424;8.420;2023-12-22T01:42:49;0.95;;;0.30;;
20855;SDS011;63058;49.424;8.420;2023-12-22T01:45:15;0.32;;;0.20;;
20855;SDS011;63058;49.424;8.420;2023-12-22T01:47:40;0.38;;;0.10;;
20855;SDS011;63058;49.424;8.420;2023-12-22T01:50:08;0.20;;;0.10;;
20855;SDS011;63058;49.424;8.420;2023-12-22T01:52:36;0.85;;;0.50;;
20855;SDS011;63058;49.424;8.420;2023-12-22T01:55:02;1.83;;;0.38;;
20855;SDS011;63058;49.424;8.420;2023-12-22T01:57:29;2.80;;;0.90;;
20855;SDS011;63058;49.424;8.420;2023-12-22T01:59:55;5.55;;;0.95;;
20855;SDS011;63058;49.424;8.420;2023-12-22T02:02:22;4.55;;;1.00;;
20855;SDS011;63058;49.424;8.420;2023-12-22T02:04:47;2.85;;;0.82;;
20855;SDS011;63058;49.424;8.420;2023-12-22T02:07:13;3.85;;;1.23;;
20855;SDS011;63058;49.424;8.420;2023-12-22T02:09:38;2.72;;;0.70;;
20855;SDS011;63058;49.424;8.420;2023-12-22T02:12:04;4.97;;;1.40;;
20855;SDS011;63058;49.424;8.420;2023-12-22T02:14:30;6.78;;;1.40;;
20855;SDS011;63058;49.424;8.420;2023-12-22T02:17:02;7.32;;;1.52;;
20855;SDS011;63058;49.424;8.420;2023-12-22T02:22:07;4.40;;;1.00;;
20855;SDS011;63058;49.424;8.420;2023-12-22T02:24:34;7.88;;;1.27;;
20855;SDS011;63058;49.424;8.420;2023-12-22T02:29:37;5.72;;;1.67;;
20855;SDS011;63058;49.424;8.420;2023-12-22T02:32:10;5.22;;;1.00;;
20855;SDS011;63058;49.424;8.420;2023-12-22T02:34:41;4.93;;;1.20;;
20855;SDS011;63058;49.424;8.420;2023-12-22T02:37:10;4.80;;;1.17;;
20855;SDS011;63058;49.424;8.420;2023-12-22T02:39:36;4.22;;;1.23;;
20855;SDS011;63058;49.424;8.420;2023-12-22T02:42:03;5.07;;;1.20;;
20855;SDS011;63058;49.424;8.420;2023-12-22T02:44:30;4.68;;;1.23;;
20855;SDS011;63058;49.424;8.420;2023-12-22T02:46:56;5.22;;;1.25;;
20855;SDS011;63058;49.424;8.420;2023-12-22T02:49:22;4.82;;;1.23;;
20855;SDS011;63058;49.424;8.420;2023-12-22T02:51:47;4.20;;;1.10;;
20855;SDS011;63058;49.424;8.420;2023-12-22T02:54:13;5.95;;;1.10;;
20855;SDS011;63058;49.424;8.420;2023-12-22T02:56:39;5.13;;;1.40;;
20855;SDS011;63058;49.424;8.420;2023-12-22T02:59:04;4.43;;;1.30;;
20855;SDS011;63058;49.424;8.420;2023-12-22T03:01:30;8.13;;;1.63;;
20855;SDS011;63058;49.424;8.420;2023-12-22T03:03:55;3.92;;;1.10;;
20855;SDS011;63058;49.424;8.420;2023-12-22T03:06:21;8.43;;;1.63;;
20855;SDS011;63058;49.424;8.420;2023-12-22T03:08:46;5.55;;;1.25;;
20855;SDS011;63058;49.424;8.420;2023-12-22T03:11:12;5.00;;;1.23;;
20855;SDS011;63058;49.424;8.420;2023-12-22T03:13:37;4.13;;;1.17;;
20855;SDS011;63058;49.424;8.420;2023-12-22T03:16:07;5.20;;;1.10;;
20855;SDS011;63058;49.424;8.420;2023-12-22T03:18:33;5.65;;;1.58;;
20855;SDS011;63058;49.424;8.420;2023-12-22T03:20:59;4.43;;;1.10;;
20855;SDS011;63058;49.424;8.420;2023-12-22T03:23:31;8.80;;;1.60;;
20855;SDS011;63058;49.424;8.420;2023-12-22T03:25:56;3.70;;;1.30;;
20855;SDS011;63058;49.424;8.420;2023-12-22T03:28:22;3.10;;;1.30;;
20855;SDS011;63058;49.424;8.420;2023-12-22T03:30:48;4.97;;;1.33;;
20855;SDS011;63058;49.424;8.420;2023-12-22T03:33:14;7.22;;;1.30;;
20855;SDS011;63058;49.424;8.420;2023-12-22T03:35:40;7.25;;;1.58;;
20855;SDS011;63058;49.424;8.420;2023-12-22T03:38:05;5.88;;;1.50;;
20855;SDS011;63058;49.424;8.420;2023-12-22T03:40:31;6.85;;;1.60;;
20855;SDS011;63058;49.424;8.420;2023-12-22T03:42:56;6.95;;;1.35;;
20855;SDS011;63058;49.424;8.420;2023-12-22T03:45:22;7.68;;;1.30;;
20855;SDS011;63058;49.424;8.420;2023-12-22T03:47:47;6.90;;;1.45;;
20855;SDS011;63058;49.424;8.420;2023-12-22T03:50:13;6.72;;;1.27;;
20855;SDS011;63058;49.424;8.420;2023-12-22T03:52:38;4.25;;;1.00;;
20855;SDS011;63058;49.424;8.420;2023-12-22T03:55:04;5.57;;;1.30;;
20855;SDS011;63058;49.424;8.420;2023-12-22T03:57:30;5.25;;;1.00;;
20855;SDS011;63058;49.424;8.420;2023-12-22T03:59:55;5.85;;;1.30;;
20855;SDS011;63058;49.424;8.420;2023-12-22T04:02:21;5.53;;;1.10;;
20855;SDS011;63058;49.424;8.420;2023-12-22T04:04:47;5.25;;;1.10;;
20855;SDS011;63058;49.424;8.420;2023-12-22T04:07:12;4.85;;;1.33;;
20855;SDS011;63058;49.424;8.420;2023-12-22T04:09:38;5.30;;;1.30;;
20855;SDS011;63058;49.424;8.420;2023-12-22T04:12:03;6.65;;;1.00;;
20855;SDS011;63058;49.424;8.420;2023-12-22T04:14:29;8.55;;;1.67;;
20855;SDS011;63058;49.424;8.420;2023-12-22T04:16:55;5.97;;;1.30;;
20855;SDS011;63058;49.424;8.420;2023-12-22T04:19:22;6.72;;;1.35;;
20855;SDS011;63058;49.424;8.420;2023-12-22T04:21:47;5.40;;;1.02;;
20855;SDS011;63058;49.424;8.420;2023-12-22T04:24:13;6.22;;;1.50;;
20855;SDS011;63058;49.424;8.420;2023-12-22T04:26:39;6.43;;;1.20;;
20855;SDS011;63058;49.424;8.420;2023-12-22T04:29:05;4.22;;;1.52;;
20855;SDS011;63058;49.424;8.420;2023-12-22T04:31:30;6.57;;;1.70;;
20855;SDS011;63058;49.424;8.420;2023-12-22T04:33:56;3.92;;;1.33;;
20855;SDS011;63058;49.424;8.420;2023-12-22T04:36:21;5.82;;;1.40;;
20855;SDS011;63058;49.424;8.420;2023-12-22T04:38:47;3.70;;;1.15;;
20855;SDS011;63058;49.424;8.420;2023-12-22T04:41:12;5.78;;;1.25;;
20855;SDS011;63058;49.424;8.420;2023-12-22T04:43:38;4.78;;;1.70;;
20855;SDS011;63058;49.424;8.420;2023-12-22T04:46:03;7.22;;;1.25;;
20855;SDS011;63058;49.424;8.420;2023-12-22T04:48:29;2.85;;;0.88;;
20855;SDS011;63058;49.424;8.420;2023-12-22T04:50:58;4.72;;;0.90;;
20855;SDS011;63058;49.424;8.420;2023-12-22T04:53:23;6.32;;;1.00;;
20855;SDS011;63058;49.424;8.420;2023-12-22T04:55:49;6.45;;;1.17;;
20855;SDS011;63058;49.424;8.420;2023-12-22T04:58:15;3.22;;;0.80;;
20855;SDS011;63058;49.424;8.420;2023-12-22T05:00:40;7.65;;;1.38;;
20855;SDS011;63058;49.424;8.420;2023-12-22T05:03:06;7.30;;;1.23;;
20855;SDS011;63058;49.424;8.420;2023-12-22T05:05:31;5.63;;;1.77;;
20855;SDS011;63058;49.424;8.420;2023-12-22T05:07:57;5.88;;;1.50;;
20855;SDS011;63058;49.424;8.420;2023-12-22T05:10:22;3.45;;;1.10;;
20855;SDS011;63058;49.424;8.420;2023-12-22T05:12:48;4.93;;;1.20;;
20855;SDS011;63058;49.424;8.420;2023-12-22T05:15:14;3.47;;;0.98;;
20855;SDS011;63058;49.424;8.420;2023-12-22T05:17:39;6.55;;;1.15;;
20855;SDS011;63058;49.424;8.420;2023-12-22T05:20:06;6.95;;;1.65;;
20855;SDS011;63058;49.424;8.420;2023-12-22T05:22:33;5.90;;;1.33;;
20855;SDS011;63058;49.424;8.420;2023-12-22T05:24:58;5.75;;;1.30;;
20855;SDS011;63058;49.424;8.420;2023-12-22T05:27:24;2.72;;;0.90;;
20855;SDS011;63058;49.424;8.420;2023-12-22T05:29:51;4.55;;;1.13;;
20855;SDS011;63058;49.424;8.420;2023-12-22T05:32:17;6.05;;;1.38;;
20855;SDS011;63058;49.424;8.420;2023-12-22T05:34:42;3.47;;;1.13;;
20855;SDS011;63058;49.424;8.420;2023-12-22T05:37:08;7.47;;;1.75;;
20855;SDS011;63058;49.424;8.420;2023-12-22T05:39:33;4.25;;;1.25;;
20855;SDS011;63058;49.424;8.420;2023-12-22T05:41:59;7.40;;;2.05;;
20855;SDS011;63058;49.424;8.420;2023-12-22T05:44:24;6.32;;;1.75;;
20855;SDS011;63058;49.424;8.420;2023-12-22T05:46:54;12.05;;;1.80;;
20855;SDS011;63058;49.424;8.420;2023-12-22T05:49:20;5.85;;;1.38;;
20855;SDS011;63058;49.424;8.420;2023-12-22T05:51:45;4.07;;;1.15;;
20855;SDS011;63058;49.424;8.420;2023-12-22T05:54:11;8.25;;;1.35;;
20855;SDS011;63058;49.424;8.420;2023-12-22T05:56:37;6.78;;;1.80;;
20855;SDS011;63058;49.424;8.420;2023-12-22T05:59:02;7.13;;;1.70;;
20855;SDS011;63058;49.424;8.420;2023-12-22T06:01:28;6.07;;;1.33;;
20855;SDS011;63058;49.424;8.420;2023-12-22T06:03:54;3.30;;;1.00;;
20855;SDS011;63058;49.424;8.420;2023-12-22T06:06:21;5.97;;;1.10;;
20855;SDS011;63058;49.424;8.420;2023-12-22T06:08:47;5.93;;;1.30;;
20855;SDS011;63058;49.424;8.420;2023-12-22T06:11:13;7.47;;;1.38;;
20855;SDS011;63058;49.424;8.420;2023-12-22T06:13:39;5.60;;;1.13;;
20855;SDS011;63058;49.424;8.420;2023-12-22T06:16:04;7.10;;;1.65;;
20855;SDS011;63058;49.424;8.420;2023-12-22T06:18:30;6.93;;;1.65;;
20855;SDS011;63058;49.424;8.420;2023-12-22T06:20:56;6.32;;;1.50;;
20855;SDS011;63058;49.424;8.420;2023-12-22T06:23:21;6.25;;;1.30;;
20855;SDS011;63058;49.424;8.420;2023-12-22T06:25:47;5.78;;;1.90;;
20855;SDS011;63058;49.424;8.420;2023-12-22T06:28:13;4.97;;;1.20;;
20855;SDS011;63058;49.424;8.420;2023-12-22T06:30:38;8.13;;;2.05;;
20855;SDS011;63058;49.424;8.420;2023-12-22T06:33:04;7.93;;;2.03;;
20855;SDS011;63058;49.424;8.420;2023-12-22T06:35:29;7.65;;;1.70;;
20855;SDS011;63058;49.424;8.420;2023-12-22T06:37:56;9.75;;;2.08;;
20855;SDS011;63058;49.424;8.420;2023-12-22T06:40:26;7.55;;;1.90;;
20855;SDS011;63058;49.424;8.420;2023-12-22T06:42:51;10.70;;;2.10;;
20855;SDS011;63058;49.424;8.420;2023-12-22T06:45:17;8.68;;;1.85;;
20855;SDS011;63058;49.424;8.420;2023-12-22T06:47:42;6.15;;;2.05;;
20855;SDS011;63058;49.424;8.420;2023-12-22T06:50:08;6.65;;;1.73;;
20855;SDS011;63058;49.424;8.420;2023-12-22T06:52:34;7.78;;;1.70;;
20855;SDS011;63058;49.424;8.420;2023-12-22T06:54:59;13.15;;;2.78;;
20855;SDS011;63058;49.424;8.420;2023-12-22T06:57:25;6.30;;;2.03;;
20855;SDS011;63058;49.424;8.420;2023-12-22T06:59:50;5.38;;;1.38;;
20855;SDS011;63058;49.424;8.420;2023-12-22T07:02:16;5.47;;;1.70;;
20855;SDS011;63058;49.424;8.420;2023-12-22T07:05:01;7.10;;;1.67;;
20855;SDS011;63058;49.424;8.420;2023-12-22T07:07:33;5.40;;;1.23;;
20855;SDS011;63058;49.424;8.420;2023-12-22T07:09:59;5.93;;;1.25;;
20855;SDS011;63058;49.424;8.420;2023-12-22T07:12:24;7.57;;;1.60;;
20855;SDS011;63058;49.424;8.420;2023-12-22T07:14:50;3.53;;;1.38;;
20855;SDS011;63058;49.424;8.420;2023-12-22T07:17:15;3.50;;;1.10;;
20855;SDS011;63058;49.424;8.420;2023-12-22T07:19:41;3.95;;;1.02;;
20855;SDS011;63058;49.424;8.420;2023-12-22T07:22:07;5.95;;;1.30;;
20855;SDS011;63058;49.424;8.420;2023-12-22T07:24:32;4.40;;;1.13;;
20855;SDS011;63058;49.424;8.420;2023-12-22T07:26:58;3.95;;;0.95;;
20855;SDS011;63058;49.424;8.420;2023-12-22T07:29:23;2.85;;;0.75;;
20855;SDS011;63058;49.424;8.420;2023-12-22T07:31:49;4.13;;;1.10;;
20855;SDS011;63058;49.424;8.420;2023-12-22T07:34:15;2.78;;;0.80;;
20855;SDS011;63058;49.424;8.420;2023-12-22T07:36:41;2.45;;;0.68;;
20855;SDS011;63058;49.424;8.420;2023-12-22T07:39:07;4.65;;;0.82;;
20855;SDS011;63058;49.424;8.420;2023-12-22T07:41:34;2.85;;;0.80;;
20855;SDS011;63058;49.424;8.420;2023-12-22T07:43:59;4.40;;;1.10;;
20855;SDS011;63058;49.424;8.420;2023-12-22T07:46:26;3.08;;;0.88;;
20855;SDS011;63058;49.424;8.420;2023-12-22T07:48:53;2.30;;;0.60;;
20855;SDS011;63058;49.424;8.420;2023-12-22T07:51:19;5.35;;;0.70;;
20855;SDS011;63058;49.424;8.420;2023-12-22T07:53:46;3.33;;;0.80;;
20855;SDS011;63058;49.424;8.420;2023-12-22T07:56:11;2.60;;;0.70;;
20855;SDS011;63058;49.424;8.420;2023-12-22T07:58:37;2.97;;;1.27;;
20855;SDS011;63058;49.424;8.420;2023-12-22T08:01:03;3.50;;;0.90;;
20855;SDS011;63058;49.424;8.420;2023-12-22T08:03:30;3.28;;;1.02;;
20855;SDS011;63058;49.424;8.420;2023-12-22T08:05:56;2.63;;;0.98;;
20855;SDS011;63058;49.424;8.420;2023-12-22T08:08:22;3.47;;;1.17;;
20855;SDS011;63058;49.424;8.420;2023-12-22T08:10:47;6.00;;;1.17;;
20855;SDS011;63058;49.424;8.420;2023-12-22T08:13:13;4.05;;;1.63;;
20855;SDS011;63058;49.424;8.420;2023-12-22T08:15:38;3.67;;;1.27;;
20855;SDS011;63058;49.424;8.420;2023-12-22T08:18:04;3.72;;;1.40;;
20855;SDS011;63058;49.424;8.420;2023-12-22T08:20:30;3.35;;;1.20;;
20855;SDS011;63058;49.424;8.420;2023-12-22T08:22:55;4.38;;;1.25;;
20855;SDS011;63058;49.424;8.420;2023-12-22T08:25:21;5.43;;;1.42;;
20855;SDS011;63058;49.424;8.420;2023-12-22T08:27:46;4.50;;;1.30;;
20855;SDS011;63058;49.424;8.420;2023-12-22T08:30:12;3.28;;;1.15;;
20855;SDS011;63058;49.424;8.420;2023-12-22T08:32:39;4.47;;;1.15;;
20855;SDS011;63058;49.424;8.420;2023-12-22T08:35:05;5.32;;;1.58;;
20855;SDS011;63058;49.424;8.420;2023-12-22T08:37:31;4.78;;;1.33;;
20855;SDS011;63058;49.424;8.420;2023-12-22T08:39:57;7.75;;;2.03;;
20855;SDS011;63058;49.424;8.420;2023-12-22T08:42:23;5.50;;;1.35;;
20855;SDS011;63058;49.424;8.420;2023-12-22T08:44:49;7.32;;;1.67;;
20855;SDS011;63058;49.424;8.420;2023-12-22T08:47:15;8.60;;;1.95;;
20855;SDS011;63058;49.424;8.420;2023-12-22T08:49:41;6.22;;;1.45;;
20855;SDS011;63058;49.424;8.420;2023-12-22T08:52:06;6.55;;;1.42;;
20855;SDS011;63058;49.424;8.420;2023-12-22T08:54:32;6.00;;;1.70;;
20855;SDS011;63058;49.424;8.420;2023-12-22T08:56:59;7.35;;;1.98;;
20855;SDS011;63058;49.424;8.420;2023-12-22T08:59:25;7.35;;;1.95;;
20855;SDS011;63058;49.424;8.420;2023-12-22T09:01:51;8.77;;;2.40;;
20855;SDS011;63058;49.424;8.420;2023-12-22T09:04:16;7.78;;;1.92;;
20855;SDS011;63058;49.424;8.420;2023-12-22T09:06:42;11.50;;;2.17;;
20855;SDS011;63058;49.424;8.420;2023-12-22T09:09:08;9.65;;;2.22;;
20855;SDS011;63058;49.424;8.420;2023-12-22T09:11:34;9.15;;;2.15;;
20855;SDS011;63058;49.424;8.420;2023-12-22T09:14:00;8.10;;;2.50;;
20855;SDS011;63058;49.424;8.420;2023-12-22T09:16:25;13.75;;;3.00;;
20855;SDS011;63058;49.424;8.420;2023-12-22T09:18:51;12.73;;;2.50;;
20855;SDS011;63058;49.424;8.420;2023-12-22T09:21:17;11.35;;;2.22;;
20855;SDS011;63058;49.424;8.420;2023-12-22T09:23:46;10.57;;;2.15;;
20855;SDS011;63058;49.424;8.420;2023-12-22T09:26:12;7.97;;;2.20;;
20855;SDS011;63058;49.424;8.420;2023-12-22T09:28:39;11.02;;;2.60;;
20855;SDS011;63058;49.424;8.420;2023-12-22T09:31:06;19.23;;;4.32;;
20855;SDS011;63058;49.424;8.420;2023-12-22T09:33:32;10.85;;;2.40;;
20855;SDS011;63058;49.424;8.420;2023-12-22T09:35:57;9.25;;;2.58;;
20855;SDS011;63058;49.424;8.420;2023-12-22T09:38:23;15.23;;;2.97;;
20855;SDS011;63058;49.424;8.420;2023-12-22T09:40:49;14.85;;;3.17;;
20855;SDS011;63058;49.424;8.420;2023-12-22T09:43:15;15.95;;;3.25;;
20855;SDS011;63058;49.424;8.420;2023-12-22T09:45:43;15.35;;;2.95;;
20855;SDS011;63058;49.424;8.420;2023-12-22T09:48:10;9.68;;;2.72;;
20855;SDS011;63058;49.424;8.420;2023-12-22T09:50:41;18.05;;;3.88;;
20855;SDS011;63058;49.424;8.420;2023-12-22T09:53:08;16.30;;;3.15;;
20855;SDS011;63058;49.424;8.420;2023-12-22T09:55:37;12.25;;;2.88;;
20855;SDS011;63058;49.424;8.420;2023-12-22T09:58:04;11.90;;;2.63;;
20855;SDS011;63058;49.424;8.420;2023-12-22T10:00:31;13.82;;;2.97;;
20855;SDS011;63058;49.424;8.420;2023-12-22T10:02:58;12.88;;;2.92;;
20855;SDS011;63058;49.424;8.420;2023-12-22T10:05:23;13.48;;;2.97;;
20855;SDS011;63058;49.424;8.420;2023-12-22T10:07:49;17.38;;;3.28;;
20855;SDS011;63058;49.424;8.420;2023-12-22T10:10:15;13.73;;;3.33;;
20855;SDS011;63058;49.424;8.420;2023-12-22T10:12:44;10.85;;;2.78;;
20855;SDS011;63058;49.424;8.420;2023-12-22T10:15:11;16.92;;;3.40;;
20855;SDS011;63058;49.424;8.420;2023-12-22T10:17:38;12.80;;;3.10;;
20855;SDS011;63058;49.424;8.420;2023-12-22T10:20:04;11.48;;;2.90;;
20855;SDS011;63058;49.424;8.420;2023-12-22T10:22:30;18.92;;;3.40;;
20855;SDS011;63058;49.424;8.420;2023-12-22T10:51:01;12.82;;;3.33;;
20855;SDS011;63058;49.424;8.420;2023-12-22T10:53:27;10.82;;;2.72;;
20855;SDS011;63058;49.424;8.420;2023-12-22T10:55:53;12.88;;;3.00;;
20855;SDS011;63058;49.424;8.420;2023-12-22T10:58:19;14.20;;;2.88;;
20855;SDS011;63058;49.424;8.420;2023-12-22T11:00:44;13.80;;;3.85;;
20855;SDS011;63058;49.424;8.420;2023-12-22T11:03:12;16.08;;;3.13;;
20855;SDS011;63058;49.424;8.420;2023-12-22T11:05:44;9.55;;;2.65;;
20855;SDS011;63058;49.424;8.420;2023-12-22T11:08:11;9.00;;;2.05;;
20855;SDS011;63058;49.424;8.420;2023-12-22T11:10:37;10.77;;;2.40;;
20855;SDS011;63058;49.424;8.420;2023-12-22T11:13:06;8.32;;;1.90;;
20855;SDS011;63058;49.424;8.420;2023-12-22T11:15:35;8.70;;;2.17;;
20855;SDS011;63058;49.424;8.420;2023-12-22T11:18:02;9.35;;;2.33;;
20855;SDS011;63058;49.424;8.420;2023-12-22T11:20:30;7.97;;;2.60;;
20855;SDS011;63058;49.424;8.420;2023-12-22T11:22:57;7.32;;;1.90;;
20855;SDS011;63058;49.424;8.420;2023-12-22T11:25:25;9.85;;;2.35;;
20855;SDS011;63058;49.424;8.420;2023-12-22T11:27:52;8.43;;;2.20;;
20855;SDS011;63058;49.424;8.420;2023-12-22T11:30:20;7.10;;;2.05;;
20855;SDS011;63058;49.424;8.420;2023-12-22T11:32:47;13.65;;;2.30;;
20855;SDS011;63058;49.424;8.420;2023-12-22T11:35:14;9.85;;;2.30;;
20855;SDS011;63058;49.424;8.420;2023-12-22T11:37:42;5.57;;;1.40;;
20855;SDS011;63058;49.424;8.420;2023-12-22T11:40:08;5.57;;;1.42;;
20855;SDS011;63058;49.424;8.420;2023-12-22T11:42:35;7.68;;;1.90;;
20855;SDS011;63058;49.424;8.420;2023-12-22T11:45:09;6.07;;;1.63;;
20855;SDS011;63058;49.424;8.420;2023-12-22T11:47:36;8.00;;;1.80;;
20855;SDS011;63058;49.424;8.420;2023-12-22T11:50:02;5.28;;;1.67;;
20855;SDS011;63058;49.424;8.420;2023-12-22T11:52:28;8.65;;;2.00;;
20855;SDS011;63058;49.424;8.420;2023-12-22T11:54:55;3.17;;;1.17;;
20855;SDS011;63058;49.424;8.420;2023-12-22T11:59:52;3.58;;;1.20;;
20855;SDS011;63058;49.424;8.420;2023-12-22T12:02:19;3.92;;;0.90;;
20855;SDS011;63058;49.424;8.420;2023-12-22T12:04:52;2.13;;;1.00;;
20855;SDS011;63058;49.424;8.420;2023-12-22T12:10:10;3.53;;;1.00;;
20855;SDS011;63058;49.424;8.420;2023-12-22T12:12:37;3.72;;;0.95;;
20855;SDS011;63058;49.424;8.420;2023-12-22T12:15:07;2.20;;;1.00;;
20855;SDS011;63058;49.424;8.420;2023-12-22T12:17:42;5.03;;;0.77;;
20855;SDS011;63058;49.424;8.420;2023-12-22T12:20:08;2.50;;;0.80;;
20855;SDS011;63058;49.424;8.420;2023-12-22T12:22:35;3.67;;;1.02;;
20855;SDS011;63058;49.424;8.420;2023-12-22T12:25:09;2.55;;;0.80;;
20855;SDS011;63058;49.424;8.420;2023-12-22T12:27:36;2.22;;;0.60;;
20855;SDS011;63058;49.424;8.420;2023-12-22T12:30:07;2.17;;;0.70;;
20855;SDS011;63058;49.424;8.420;2023-12-22T12:32:36;2.08;;;0.55;;
20855;SDS011;63058;49.424;8.420;2023-12-22T12:35:02;2.10;;;0.65;;
20855;SDS011;63058;49.424;8.420;2023-12-22T12:37:29;2.88;;;0.70;;
20855;SDS011;63058;49.424;8.420;2023-12-22T12:39:54;3.08;;;0.55;;
20855;SDS011;63058;49.424;8.420;2023-12-22T12:42:25;0.85;;;0.50;;
20855;SDS011;63058;49.424;8.420;2023-12-22T12:44:57;1.15;;;0.50;;
20855;SDS011;63058;49.424;8.420;2023-12-22T12:47:22;1.30;;;0.60;;
20855;SDS011;63058;49.424;8.420;2023-12-22T12:49:56;1.42;;;0.70;;
20855;SDS011;63058;49.424;8.420;2023-12-22T12:52:23;1.58;;;0.50;;
20855;SDS011;63058;49.424;8.420;2023-12-22T12:54:50;1.33;;;0.40;;
20855;SDS011;63058;49.424;8.420;2023-12-22T12:57:15;2.63;;;0.55;;
20855;SDS011;63058;49.424;8.420;2023-12-22T12:59:48;0.70;;;0.50;;
20855;SDS011;63058;49.424;8.420;2023-12-22T13:02:18;0.70;;;0.50;;
20855;SDS011;63058;49.424;8.420;2023-12-22T13:04:44;1.70;;;0.40;;
20855;SDS011;63058;49.424;8.420;2023-12-22T13:07:10;0.80;;;0.50;;
20855;SDS011;63058;49.424;8.420;2023-12-22T13:09:38;0.60;;;0.40;;
20855;SDS011;63058;49.424;8.420;2023-12-22T13:12:04;0.60;;;0.40;;
20855;SDS011;63058;49.424;8.420;2023-12-22T13:14:30;0.70;;;0.30;;
20855;SDS011;63058;49.424;8.420;2023-12-22T13:16:56;1.15;;;0.40;;
20855;SDS011;63058;49.424;8.420;2023-12-22T13:19:23;0.70;;;0.40;;
20855;SDS011;63058;49.424;8.420;2023-12-22T13:21:50;0.82;;;0.30;;
20855;SDS011;63058;49.424;8.420;2023-12-22T13:24:17;0.40;;;0.30;;
20855;SDS011;63058;49.424;8.420;2023-12-22T13:26:43;1.95;;;0.35;;
20855;SDS011;63058;49.424;8.420;2023-12-22T13:29:09;0.52;;;0.30;;
20855;SDS011;63058;49.424;8.420;2023-12-22T13:31:37;0.85;;;0.40;;
20855;SDS011;63058;49.424;8.420;2023-12-22T13:34:07;0.63;;;0.40;;
20855;SDS011;63058;49.424;8.420;2023-12-22T13:36:37;0.82;;;0.40;;
20855;SDS011;63058;49.424;8.420;2023-12-22T13:39:06;1.10;;;0.40;;
20855;SDS011;63058;49.424;8.420;2023-12-22T13:41:35;1.05;;;0.30;;
20855;SDS011;63058;49.424;8.420;2023-12-22T13:44:10;1.23;;;0.50;;
20855;SDS011;63058;49.424;8.420;2023-12-22T13:46:37;0.70;;;0.40;;
20855;SDS011;63058;49.424;8.420;2023-12-22T13:49:07;0.40;;;0.30;;
20855;SDS011;63058;49.424;8.420;2023-12-22T13:51:43;1.58;;;0.40;;
20855;SDS011;63058;49.424;8.420;2023-12-22T13:54:09;1.02;;;0.50;;
20855;SDS011;63058;49.424;8.420;2023-12-22T13:56:36;0.90;;;0.50;;
20855;SDS011;63058;49.424;8.420;2023-12-22T13:59:02;0.82;;;0.50;;
20855;SDS011;63058;49.424;8.420;2023-12-22T14:01:31;0.73;;;0.40;;
20855;SDS011;63058;49.424;8.420;2023-12-22T14:03:57;0.50;;;0.40;;
20855;SDS011;63058;49.424;8.420;2023-12-22T14:06:24;0.98;;;0.40;;
20855;SDS011;63058;49.424;8.420;2023-12-22T14:08:50;1.10;;;0.50;;
20855;SDS011;63058;49.424;8.420;2023-12-22T14:11:16;0.63;;;0.40;;
20855;SDS011;63058;49.424;8.420;2023-12-22T14:13:41;1.10;;;0.50;;
20855;SDS011;63058;49.424;8.420;2023-12-22T14:16:08;0.50;;;0.40;;
20855;SDS011;63058;49.424;8.420;2023-12-22T14:18:33;1.58;;;0.65;;
20855;SDS011;63058;49.424;8.420;2023-12-22T14:20:59;1.20;;;0.57;;
20855;SDS011;63058;49.424;8.420;2023-12-22T14:23:25;0.47;;;0.40;;
20855;SDS011;63058;49.424;8.420;2023-12-22T14:25:51;0.82;;;0.50;;
20855;SDS011;63058;49.424;8.420;2023-12-22T14:28:17;0.93;;;0.70;;
20855;SDS011;63058;49.424;8.420;2023-12-22T14:30:42;0.40;;;0.38;;
20855;SDS011;63058;49.424;8.420;2023-12-22T14:33:08;0.95;;;0.50;;
20855;SDS011;63058;49.424;8.420;2023-12-22T14:35:34;0.75;;;0.45;;
20855;SDS011;63058;49.424;8.420;2023-12-22T14:38:00;0.75;;;0.50;;
20855;SDS011;63058;49.424;8.420;2023-12-22T14:40:26;1.02;;;0.50;;
20855;SDS011;63058;49.424;8.420;2023-12-22T14:42:51;0.60;;;0.50;;
20855;SDS011;63058;49.424;8.420;2023-12-22T14:45:17;1.15;;;0.75;;
20855;SDS011;63058;49.424;8.420;2023-12-22T14:47:42;1.40;;;1.00;;
20855;SDS011;63058;49.424;8.420;2023-12-22T14:50:08;0.95;;;0.80;;
20855;SDS011;63058;49.424;8.420;2023-12-22T14:52:34;2.28;;;1.38;;
20855;SDS011;63058;49.424;8.420;2023-12-22T14:55:01;2.42;;;1.60;;
20855;SDS011;63058;49.424;8.420;2023-12-22T14:57:27;1.65;;;0.90;;
20855;SDS011;63058;49.424;8.420;2023-12-22T14:59:55;1.00;;;0.70;;
20855;SDS011;63058;49.424;8.420;2023-12-22T15:02:21;1.63;;;0.93;;
20855;SDS011;63058;49.424;8.420;2023-12-22T15:04:47;1.25;;;0.80;;
20855;SDS011;63058;49.424;8.420;2023-12-22T15:07:16;1.38;;;0.80;;
20855;SDS011;63058;49.424;8.420;2023-12-22T15:09:44;1.85;;;0.90;;
20855;SDS011;63058;49.424;8.420;2023-12-22T15:12:14;1.27;;;0.82;;
20855;SDS011;63058;49.424;8.420;2023-12-22T15:14:44;1.45;;;0.80;;
20855;SDS011;63058;49.424;8.420;2023-12-22T15:17:10;0.88;;;0.60;;